sensor_id;sensor_type;location;lat;lon;timestamp;P1;durP1;ratioP1;P2;durP2;ratioP2
7983;SDS011;4037;47.980;10.172;2022-09-03T00:01:02;4.13;;;3.73;;
7983;SDS011;4037;47.980;10.172;2022-09-03T00:03:30;4.60;;;3.97;;
7983;SDS011;4037;47.980;10.172;2022-09-03T00:08:47;4.33;;;3.93;;
7983;SDS011;4037;47.980;10.172;2022-09-03T00:13:50;5.07;;;4.17;;
7983;SDS011;4037;47.980;10.172;2022-09-03T00:16:19;4.40;;;4.10;;
7983;SDS011;4037;47.980;10.172;2022-09-03T00:18:56;4.27;;;3.97;;
7983;SDS011;4037;47.980;10.172;2022-09-03T00:23:59;4.57;;;4.17;;
7983;SDS011;4037;47.980;10.172;2022-09-03T00:26:28;4.10;;;3.70;;
7983;SDS011;4037;47.980;10.172;2022-09-03T00:29:00;6.33;;;4.00;;
7983;SDS011;4037;47.980;10.172;2022-09-03T00:31:31;4.73;;;4.33;;
7983;SDS011;4037;47.980;10.172;2022-09-03T00:34:05;5.00;;;4.50;;
7983;SDS011;4037;47.980;10.172;2022-09-03T00:36:34;4.83;;;4.33;;
7983;SDS011;4037;47.980;10.172;2022-09-03T00:39:07;5.67;;;4.50;;
7983;SDS011;4037;47.980;10.172;2022-09-03T00:41:37;4.47;;;4.07;;
7983;SDS011;4037;47.980;10.172;2022-09-03T00:47:01;5.33;;;4.73;;
7983;SDS011;4037;47.980;10.172;2022-09-03T00:52:20;5.80;;;4.73;;
7983;SDS011;4037;47.980;10.172;2022-09-03T00:55:01;5.40;;;5.00;;
7983;SDS011;4037;47.980;10.172;2022-09-03T01:15:14;6.47;;;5.30;;
7983;SDS011;4037;47.980;10.172;2022-09-03T01:20:22;5.30;;;4.80;;
7983;SDS011;4037;47.980;10.172;2022-09-03T01:30:50;4.60;;;4.20;;
7983;SDS011;4037;47.980;10.172;2022-09-03T01:36:15;5.70;;;4.40;;
7983;SDS011;4037;47.980;10.172;2022-09-03T01:38:55;5.80;;;4.30;;
7983;SDS011;4037;47.980;10.172;2022-09-03T01:46:43;5.00;;;4.60;;
7983;SDS011;4037;47.980;10.172;2022-09-03T01:50:00;5.13;;;4.73;;
7983;SDS011;4037;47.980;10.172;2022-09-03T01:52:02;10.10;;;5.13;;
7983;SDS011;4037;47.980;10.172;2022-09-03T02:07:23;6.70;;;6.10;;
7983;SDS011;4037;47.980;10.172;2022-09-03T02:09:50;6.53;;;5.83;;
7983;SDS011;4037;47.980;10.172;2022-09-03T02:12:16;5.73;;;5.23;;
7983;SDS011;4037;47.980;10.172;2022-09-03T02:14:44;6.10;;;5.50;;
7983;SDS011;4037;47.980;10.172;2022-09-03T02:17:10;6.00;;;5.43;;
7983;SDS011;4037;47.980;10.172;2022-09-03T02:19:37;6.03;;;5.53;;
7983;SDS011;4037;47.980;10.172;2022-09-03T02:22:04;6.10;;;5.50;;
7983;SDS011;4037;47.980;10.172;2022-09-03T02:24:30;6.27;;;5.50;;
7983;SDS011;4037;47.980;10.172;2022-09-03T02:26:57;5.87;;;5.40;;
7983;SDS011;4037;47.980;10.172;2022-09-03T02:29:23;5.87;;;5.37;;
7983;SDS011;4037;47.980;10.172;2022-09-03T02:31:50;6.10;;;5.50;;
7983;SDS011;4037;47.980;10.172;2022-09-03T02:34:16;7.13;;;6.40;;
7983;SDS011;4037;47.980;10.172;2022-09-03T02:36:43;5.93;;;5.43;;
7983;SDS011;4037;47.980;10.172;2022-09-03T02:39:13;7.00;;;6.30;;
7983;SDS011;4037;47.980;10.172;2022-09-03T02:41:39;6.13;;;5.53;;
7983;SDS011;4037;47.980;10.172;2022-09-03T02:44:11;6.33;;;5.83;;
7983;SDS011;4037;47.980;10.172;2022-09-03T02:46:47;6.43;;;5.87;;
7983;SDS011;4037;47.980;10.172;2022-09-03T02:49:14;7.47;;;5.97;;
7983;SDS011;4037;47.980;10.172;2022-09-03T02:51:41;6.77;;;5.80;;
7983;SDS011;4037;47.980;10.172;2022-09-03T02:54:09;7.10;;;6.40;;
7983;SDS011;4037;47.980;10.172;2022-09-03T02:56:35;6.27;;;5.67;;
7983;SDS011;4037;47.980;10.172;2022-09-03T02:59:02;7.67;;;6.83;;
7983;SDS011;4037;47.980;10.172;2022-09-03T03:01:28;7.30;;;6.60;;
7983;SDS011;4037;47.980;10.172;2022-09-03T03:03:54;8.20;;;7.07;;
7983;SDS011;4037;47.980;10.172;2022-09-03T03:06:20;8.73;;;6.90;;
7983;SDS011;4037;47.980;10.172;2022-09-03T03:08:46;7.43;;;6.73;;
7983;SDS011;4037;47.980;10.172;2022-09-03T03:11:13;6.70;;;6.00;;
7983;SDS011;4037;47.980;10.172;2022-09-03T03:13:42;6.90;;;6.20;;
7983;SDS011;4037;47.980;10.172;2022-09-03T03:16:08;8.33;;;6.23;;
7983;SDS011;4037;47.980;10.172;2022-09-03T03:18:34;6.90;;;6.30;;
7983;SDS011;4037;47.980;10.172;2022-09-03T03:21:07;6.27;;;5.63;;
7983;SDS011;4037;47.980;10.172;2022-09-03T03:23:34;6.93;;;5.73;;
7983;SDS011;4037;47.980;10.172;2022-09-03T03:26:01;6.40;;;5.80;;
7983;SDS011;4037;47.980;10.172;2022-09-03T03:28:28;7.30;;;6.50;;
7983;SDS011;4037;47.980;10.172;2022-09-03T03:30:58;6.53;;;5.93;;
7983;SDS011;4037;47.980;10.172;2022-09-03T03:33:24;7.23;;;6.53;;
7983;SDS011;4037;47.980;10.172;2022-09-03T03:35:50;6.80;;;6.07;;
7983;SDS011;4037;47.980;10.172;2022-09-03T03:38:17;6.07;;;5.57;;
7983;SDS011;4037;47.980;10.172;2022-09-03T03:40:43;7.07;;;6.30;;
7983;SDS011;4037;47.980;10.172;2022-09-03T03:43:09;6.67;;;6.00;;
7983;SDS011;4037;47.980;10.172;2022-09-03T03:45:36;10.23;;;5.97;;
7983;SDS011;4037;47.980;10.172;2022-09-03T03:48:02;6.80;;;6.07;;
7983;SDS011;4037;47.980;10.172;2022-09-03T03:50:28;6.80;;;5.70;;
7983;SDS011;4037;47.980;10.172;2022-09-03T03:52:54;6.67;;;5.97;;
7983;SDS011;4037;47.980;10.172;2022-09-03T03:55:20;6.33;;;5.70;;
7983;SDS011;4037;47.980;10.172;2022-09-03T03:57:46;7.13;;;5.83;;
7983;SDS011;4037;47.980;10.172;2022-09-03T04:00:12;6.70;;;6.00;;
7983;SDS011;4037;47.980;10.172;2022-09-03T04:02:39;8.60;;;5.60;;
7983;SDS011;4037;47.980;10.172;2022-09-03T04:05:05;5.87;;;5.37;;
7983;SDS011;4037;47.980;10.172;2022-09-03T04:07:31;8.20;;;5.13;;
7983;SDS011;4037;47.980;10.172;2022-09-03T04:09:57;5.97;;;5.37;;
7983;SDS011;4037;47.980;10.172;2022-09-03T04:12:23;6.57;;;5.97;;
7983;SDS011;4037;47.980;10.172;2022-09-03T04:14:49;5.50;;;5.00;;
7983;SDS011;4037;47.980;10.172;2022-09-03T04:17:15;6.60;;;5.97;;
7983;SDS011;4037;47.980;10.172;2022-09-03T04:19:41;6.37;;;5.77;;
7983;SDS011;4037;47.980;10.172;2022-09-03T04:22:07;6.67;;;5.53;;
7983;SDS011;4037;47.980;10.172;2022-09-03T04:24:33;6.77;;;6.03;;
7983;SDS011;4037;47.980;10.172;2022-09-03T04:26:59;6.47;;;5.87;;
7983;SDS011;4037;47.980;10.172;2022-09-03T04:29:25;7.87;;;6.07;;
7983;SDS011;4037;47.980;10.172;2022-09-03T04:31:55;6.20;;;5.60;;
7983;SDS011;4037;47.980;10.172;2022-09-03T04:34:39;6.23;;;5.60;;
7983;SDS011;4037;47.980;10.172;2022-09-03T04:37:05;14.30;;;5.80;;
7983;SDS011;4037;47.980;10.172;2022-09-03T04:39:32;5.37;;;4.87;;
7983;SDS011;4037;47.980;10.172;2022-09-03T04:41:58;7.80;;;5.00;;
7983;SDS011;4037;47.980;10.172;2022-09-03T04:44:24;5.23;;;4.60;;
7983;SDS011;4037;47.980;10.172;2022-09-03T04:46:50;6.43;;;5.70;;
7983;SDS011;4037;47.980;10.172;2022-09-03T04:49:17;6.67;;;5.57;;
7983;SDS011;4037;47.980;10.172;2022-09-03T04:51:44;6.93;;;6.03;;
7983;SDS011;4037;47.980;10.172;2022-09-03T04:54:10;7.60;;;5.83;;
7983;SDS011;4037;47.980;10.172;2022-09-03T04:56:37;5.20;;;4.63;;
7983;SDS011;4037;47.980;10.172;2022-09-03T04:59:05;5.97;;;5.17;;
7983;SDS011;4037;47.980;10.172;2022-09-03T05:01:32;6.13;;;5.50;;
7983;SDS011;4037;47.980;10.172;2022-09-03T05:03:58;8.77;;;5.57;;
7983;SDS011;4037;47.980;10.172;2022-09-03T05:06:25;5.23;;;4.50;;
7983;SDS011;4037;47.980;10.172;2022-09-03T05:08:52;6.17;;;5.13;;
7983;SDS011;4037;47.980;10.172;2022-09-03T05:11:19;6.70;;;5.03;;
7983;SDS011;4037;47.980;10.172;2022-09-03T05:13:48;4.97;;;4.47;;
7983;SDS011;4037;47.980;10.172;2022-09-03T05:16:14;8.63;;;5.07;;
7983;SDS011;4037;47.980;10.172;2022-09-03T05:18:40;5.70;;;4.97;;
7983;SDS011;4037;47.980;10.172;2022-09-03T05:21:11;5.60;;;5.00;;
7983;SDS011;4037;47.980;10.172;2022-09-03T05:23:38;7.30;;;6.03;;
7983;SDS011;4037;47.980;10.172;2022-09-03T05:26:05;6.43;;;5.83;;
7983;SDS011;4037;47.980;10.172;2022-09-03T05:28:35;7.70;;;6.47;;
7983;SDS011;4037;47.980;10.172;2022-09-03T05:31:03;7.50;;;5.90;;
7983;SDS011;4037;47.980;10.172;2022-09-03T05:33:32;8.20;;;7.40;;
7983;SDS011;4037;47.980;10.172;2022-09-03T05:36:00;7.03;;;6.30;;
7983;SDS011;4037;47.980;10.172;2022-09-03T05:38:26;9.00;;;7.50;;
7983;SDS011;4037;47.980;10.172;2022-09-03T05:40:52;6.93;;;6.30;;
7983;SDS011;4037;47.980;10.172;2022-09-03T05:43:18;7.07;;;6.37;;
7983;SDS011;4037;47.980;10.172;2022-09-03T05:45:45;7.90;;;6.43;;
7983;SDS011;4037;47.980;10.172;2022-09-03T05:48:11;10.30;;;6.87;;
7983;SDS011;4037;47.980;10.172;2022-09-03T05:50:37;8.67;;;7.20;;
7983;SDS011;4037;47.980;10.172;2022-09-03T05:53:04;7.13;;;6.53;;
7983;SDS011;4037;47.980;10.172;2022-09-03T05:55:30;7.27;;;6.57;;
7983;SDS011;4037;47.980;10.172;2022-09-03T05:57:57;8.40;;;7.60;;
7983;SDS011;4037;47.980;10.172;2022-09-03T06:00:23;8.27;;;7.00;;
7983;SDS011;4037;47.980;10.172;2022-09-03T06:02:52;8.83;;;7.90;;
7983;SDS011;4037;47.980;10.172;2022-09-03T06:05:18;7.43;;;6.37;;
7983;SDS011;4037;47.980;10.172;2022-09-03T06:07:44;8.00;;;7.13;;
7983;SDS011;4037;47.980;10.172;2022-09-03T06:10:14;7.60;;;6.80;;
7983;SDS011;4037;47.980;10.172;2022-09-03T06:12:41;7.80;;;7.00;;
7983;SDS011;4037;47.980;10.172;2022-09-03T06:15:13;7.80;;;7.03;;
7983;SDS011;4037;47.980;10.172;2022-09-03T06:17:39;7.67;;;6.87;;
7983;SDS011;4037;47.980;10.172;2022-09-03T06:20:05;7.67;;;6.87;;
7983;SDS011;4037;47.980;10.172;2022-09-03T06:22:31;8.47;;;7.57;;
7983;SDS011;4037;47.980;10.172;2022-09-03T06:24:57;8.30;;;7.30;;
7983;SDS011;4037;47.980;10.172;2022-09-03T06:27:23;8.20;;;7.40;;
7983;SDS011;4037;47.980;10.172;2022-09-03T06:29:49;7.90;;;7.17;;
7983;SDS011;4037;47.980;10.172;2022-09-03T06:32:15;8.00;;;7.10;;
7983;SDS011;4037;47.980;10.172;2022-09-03T06:34:42;8.87;;;7.97;;
7983;SDS011;4037;47.980;10.172;2022-09-03T06:37:08;8.23;;;7.43;;
7983;SDS011;4037;47.980;10.172;2022-09-03T06:39:34;8.70;;;7.80;;
7983;SDS011;4037;47.980;10.172;2022-09-03T06:42:00;7.80;;;7.10;;
7983;SDS011;4037;47.980;10.172;2022-09-03T06:44:26;8.70;;;7.53;;
7983;SDS011;4037;47.980;10.172;2022-09-03T06:46:52;7.40;;;6.70;;
7983;SDS011;4037;47.980;10.172;2022-09-03T06:49:18;6.03;;;5.43;;
7983;SDS011;4037;47.980;10.172;2022-09-03T06:51:45;6.03;;;5.07;;
7983;SDS011;4037;47.980;10.172;2022-09-03T06:54:11;5.43;;;4.93;;
7983;SDS011;4037;47.980;10.172;2022-09-03T06:56:39;6.77;;;5.63;;
7983;SDS011;4037;47.980;10.172;2022-09-03T06:59:12;8.20;;;5.07;;
7983;SDS011;4037;47.980;10.172;2022-09-03T07:01:38;5.13;;;4.20;;
7983;SDS011;4037;47.980;10.172;2022-09-03T07:04:05;4.40;;;4.00;;
7983;SDS011;4037;47.980;10.172;2022-09-03T07:06:32;5.30;;;4.47;;
7983;SDS011;4037;47.980;10.172;2022-09-03T07:09:01;4.50;;;4.10;;
7983;SDS011;4037;47.980;10.172;2022-09-03T07:11:28;5.40;;;4.63;;
7983;SDS011;4037;47.980;10.172;2022-09-03T07:16:35;5.37;;;4.87;;
7983;SDS011;4037;47.980;10.172;2022-09-03T07:19:01;5.60;;;5.10;;
7983;SDS011;4037;47.980;10.172;2022-09-03T07:21:29;5.30;;;4.80;;
7983;SDS011;4037;47.980;10.172;2022-09-03T07:23:55;4.43;;;4.03;;
7983;SDS011;4037;47.980;10.172;2022-09-03T07:26:29;4.63;;;4.23;;
7983;SDS011;4037;47.980;10.172;2022-09-03T07:28:56;4.20;;;3.80;;
7983;SDS011;4037;47.980;10.172;2022-09-03T07:31:24;4.63;;;4.20;;
7983;SDS011;4037;47.980;10.172;2022-09-03T07:33:53;3.63;;;3.30;;
7983;SDS011;4037;47.980;10.172;2022-09-03T07:36:20;4.40;;;4.00;;
7983;SDS011;4037;47.980;10.172;2022-09-03T07:38:46;3.40;;;3.10;;
7983;SDS011;4037;47.980;10.172;2022-09-03T07:41:13;4.30;;;3.90;;
7983;SDS011;4037;47.980;10.172;2022-09-03T07:43:40;3.97;;;3.60;;
7983;SDS011;4037;47.980;10.172;2022-09-03T07:46:22;4.70;;;3.83;;
7983;SDS011;4037;47.980;10.172;2022-09-03T07:48:57;4.90;;;4.40;;
7983;SDS011;4037;47.980;10.172;2022-09-03T07:51:27;5.30;;;4.80;;
7983;SDS011;4037;47.980;10.172;2022-09-03T07:53:55;4.83;;;4.20;;
7983;SDS011;4037;47.980;10.172;2022-09-03T07:56:22;4.60;;;3.50;;
7983;SDS011;4037;47.980;10.172;2022-09-03T07:58:48;4.60;;;4.20;;
7983;SDS011;4037;47.980;10.172;2022-09-03T08:01:15;5.17;;;4.67;;
7983;SDS011;4037;47.980;10.172;2022-09-03T08:03:42;3.40;;;2.97;;
7983;SDS011;4037;47.980;10.172;2022-09-03T08:06:09;4.90;;;4.50;;
7983;SDS011;4037;47.980;10.172;2022-09-03T08:08:36;5.33;;;4.73;;
7983;SDS011;4037;47.980;10.172;2022-09-03T08:13:35;4.73;;;4.00;;
7983;SDS011;4037;47.980;10.172;2022-09-03T08:16:01;5.27;;;4.77;;
7983;SDS011;4037;47.980;10.172;2022-09-03T08:18:28;4.60;;;4.17;;
7983;SDS011;4037;47.980;10.172;2022-09-03T08:20:59;4.77;;;4.37;;
7983;SDS011;4037;47.980;10.172;2022-09-03T08:23:25;7.40;;;4.10;;
7983;SDS011;4037;47.980;10.172;2022-09-03T08:25:58;3.67;;;3.37;;
7983;SDS011;4037;47.980;10.172;2022-09-03T08:28:24;4.03;;;3.63;;
7983;SDS011;4037;47.980;10.172;2022-09-03T08:30:50;4.43;;;3.30;;
7983;SDS011;4037;47.980;10.172;2022-09-03T08:33:16;3.90;;;3.60;;
7983;SDS011;4037;47.980;10.172;2022-09-03T08:36:01;4.40;;;3.70;;
7983;SDS011;4037;47.980;10.172;2022-09-03T08:38:29;4.17;;;3.77;;
7983;SDS011;4037;47.980;10.172;2022-09-03T08:41:01;4.20;;;3.80;;
7983;SDS011;4037;47.980;10.172;2022-09-03T08:43:28;5.13;;;3.90;;
7983;SDS011;4037;47.980;10.172;2022-09-03T08:45:55;4.40;;;4.00;;
7983;SDS011;4037;47.980;10.172;2022-09-03T08:48:23;4.27;;;3.87;;
7983;SDS011;4037;47.980;10.172;2022-09-03T08:50:50;3.73;;;3.33;;
7983;SDS011;4037;47.980;10.172;2022-09-03T08:53:21;2.80;;;2.60;;
7983;SDS011;4037;47.980;10.172;2022-09-03T08:55:52;3.53;;;3.23;;
7983;SDS011;4037;47.980;10.172;2022-09-03T08:58:21;5.80;;;3.07;;
7983;SDS011;4037;47.980;10.172;2022-09-03T09:05:53;3.90;;;3.07;;
7983;SDS011;4037;47.980;10.172;2022-09-03T09:09:07;2.50;;;2.30;;
7983;SDS011;4037;47.980;10.172;2022-09-03T09:13:45;3.40;;;2.60;;
7983;SDS011;4037;47.980;10.172;2022-09-03T09:19:50;2.87;;;2.63;;
7983;SDS011;4037;47.980;10.172;2022-09-03T09:21:55;3.20;;;2.80;;
7983;SDS011;4037;47.980;10.172;2022-09-03T09:24:24;3.10;;;2.80;;
7983;SDS011;4037;47.980;10.172;2022-09-03T09:26:56;2.50;;;2.30;;
7983;SDS011;4037;47.980;10.172;2022-09-03T09:29:23;3.27;;;2.70;;
7983;SDS011;4037;47.980;10.172;2022-09-03T09:31:49;2.90;;;2.60;;
7983;SDS011;4037;47.980;10.172;2022-09-03T09:34:17;2.57;;;2.37;;
7983;SDS011;4037;47.980;10.172;2022-09-03T09:36:50;2.87;;;2.37;;
7983;SDS011;4037;47.980;10.172;2022-09-03T09:39:17;2.07;;;1.93;;
7983;SDS011;4037;47.980;10.172;2022-09-03T09:41:43;2.60;;;2.40;;
7983;SDS011;4037;47.980;10.172;2022-09-03T09:44:21;2.10;;;1.90;;
7983;SDS011;4037;47.980;10.172;2022-09-03T09:46:49;2.60;;;2.40;;
7983;SDS011;4037;47.980;10.172;2022-09-03T09:51:48;2.40;;;2.20;;
7983;SDS011;4037;47.980;10.172;2022-09-03T09:54:15;1.83;;;1.73;;
7983;SDS011;4037;47.980;10.172;2022-09-03T09:56:45;2.20;;;1.50;;
7983;SDS011;4037;47.980;10.172;2022-09-03T09:59:13;2.63;;;1.77;;
7983;SDS011;4037;47.980;10.172;2022-09-03T10:01:43;2.37;;;1.60;;
7983;SDS011;4037;47.980;10.172;2022-09-03T10:04:27;1.80;;;1.60;;
7983;SDS011;4037;47.980;10.172;2022-09-03T10:06:55;1.60;;;1.50;;
7983;SDS011;4037;47.980;10.172;2022-09-03T10:09:22;2.07;;;1.70;;
7983;SDS011;4037;47.980;10.172;2022-09-03T10:11:49;2.37;;;1.97;;
7983;SDS011;4037;47.980;10.172;2022-09-03T10:14:27;1.80;;;1.70;;
7983;SDS011;4037;47.980;10.172;2022-09-03T10:17:03;2.00;;;1.80;;
7983;SDS011;4037;47.980;10.172;2022-09-03T10:19:35;2.47;;;1.77;;
7983;SDS011;4037;47.980;10.172;2022-09-03T10:22:08;2.30;;;2.10;;
7983;SDS011;4037;47.980;10.172;2022-09-03T10:24:48;1.80;;;1.50;;
7983;SDS011;4037;47.980;10.172;2022-09-03T10:27:17;2.40;;;2.10;;
7983;SDS011;4037;47.980;10.172;2022-09-03T10:29:46;1.77;;;1.67;;
7983;SDS011;4037;47.980;10.172;2022-09-03T10:40:17;2.07;;;1.70;;
7983;SDS011;4037;47.980;10.172;2022-09-03T10:45:18;2.03;;;1.60;;
7983;SDS011;4037;47.980;10.172;2022-09-03T10:47:59;2.00;;;1.60;;
7983;SDS011;4037;47.980;10.172;2022-09-03T10:53:11;1.63;;;1.30;;
7983;SDS011;4037;47.980;10.172;2022-09-03T10:55:40;1.50;;;1.37;;
7983;SDS011;4037;47.980;10.172;2022-09-03T11:00:35;1.30;;;1.20;;
7983;SDS011;4037;47.980;10.172;2022-09-03T11:08:29;1.30;;;1.20;;
7983;SDS011;4037;47.980;10.172;2022-09-03T11:11:06;1.30;;;1.20;;
7983;SDS011;4037;47.980;10.172;2022-09-03T11:13:39;2.72;;;1.40;;
7983;SDS011;4037;47.980;10.172;2022-09-03T11:16:09;2.13;;;1.40;;
7983;SDS011;4037;47.980;10.172;2022-09-03T11:21:03;1.45;;;1.35;;
7983;SDS011;4037;47.980;10.172;2022-09-03T11:23:32;1.58;;;1.15;;
7983;SDS011;4037;47.980;10.172;2022-09-03T11:26:06;1.83;;;1.00;;
7983;SDS011;4037;47.980;10.172;2022-09-03T11:28:39;1.50;;;1.20;;
7983;SDS011;4037;47.980;10.172;2022-09-03T11:33:55;1.43;;;1.33;;
7983;SDS011;4037;47.980;10.172;2022-09-03T11:36:30;2.53;;;1.50;;
7983;SDS011;4037;47.980;10.172;2022-09-03T11:38:56;1.97;;;1.30;;
7983;SDS011;4037;47.980;10.172;2022-09-03T11:41:23;1.40;;;1.30;;
7983;SDS011;4037;47.980;10.172;2022-09-03T11:43:51;1.45;;;1.15;;
7983;SDS011;4037;47.980;10.172;2022-09-03T11:48:54;2.37;;;1.50;;
7983;SDS011;4037;47.980;10.172;2022-09-03T11:56:20;1.60;;;1.40;;
7983;SDS011;4037;47.980;10.172;2022-09-03T11:58:57;1.30;;;1.20;;
7983;SDS011;4037;47.980;10.172;2022-09-03T12:01:24;1.20;;;1.10;;
7983;SDS011;4037;47.980;10.172;2022-09-03T12:04:02;1.73;;;1.10;;
7983;SDS011;4037;47.980;10.172;2022-09-03T12:21:51;3.63;;;1.40;;
7983;SDS011;4037;47.980;10.172;2022-09-03T12:24:19;2.17;;;1.40;;
7983;SDS011;4037;47.980;10.172;2022-09-03T12:26:47;2.07;;;1.50;;
7983;SDS011;4037;47.980;10.172;2022-09-03T12:29:21;2.50;;;1.77;;
7983;SDS011;4037;47.980;10.172;2022-09-03T12:31:47;2.20;;;1.33;;
7983;SDS011;4037;47.980;10.172;2022-09-03T12:34:16;1.30;;;1.20;;
7983;SDS011;4037;47.980;10.172;2022-09-03T12:36:43;3.00;;;1.30;;
7983;SDS011;4037;47.980;10.172;2022-09-03T12:41:45;3.30;;;1.70;;
7983;SDS011;4037;47.980;10.172;2022-09-03T12:44:23;4.03;;;1.53;;
7983;SDS011;4037;47.980;10.172;2022-09-03T12:46:58;2.47;;;1.77;;
7983;SDS011;4037;47.980;10.172;2022-09-03T12:49:25;2.07;;;1.60;;
7983;SDS011;4037;47.980;10.172;2022-09-03T12:51:56;1.60;;;1.43;;
7983;SDS011;4037;47.980;10.172;2022-09-03T12:54:23;3.30;;;1.93;;
7983;SDS011;4037;47.980;10.172;2022-09-03T12:56:52;2.00;;;1.73;;
7983;SDS011;4037;47.980;10.172;2022-09-03T12:59:19;2.00;;;1.80;;
7983;SDS011;4037;47.980;10.172;2022-09-03T13:01:50;3.00;;;2.10;;
7983;SDS011;4037;47.980;10.172;2022-09-03T13:04:18;2.13;;;1.80;;
7983;SDS011;4037;47.980;10.172;2022-09-03T13:06:53;2.60;;;1.97;;
7983;SDS011;4037;47.980;10.172;2022-09-03T13:09:24;3.20;;;2.27;;
7983;SDS011;4037;47.980;10.172;2022-09-03T13:11:53;2.80;;;2.40;;
7983;SDS011;4037;47.980;10.172;2022-09-03T13:14:20;2.57;;;1.80;;
7983;SDS011;4037;47.980;10.172;2022-09-03T13:16:52;8.60;;;2.30;;
7983;SDS011;4037;47.980;10.172;2022-09-03T13:19:25;2.87;;;2.07;;
7983;SDS011;4037;47.980;10.172;2022-09-03T13:24:27;2.73;;;2.00;;
7983;SDS011;4037;47.980;10.172;2022-09-03T13:32:15;3.00;;;2.13;;
7983;SDS011;4037;47.980;10.172;2022-09-03T13:34:51;2.47;;;2.00;;
7983;SDS011;4037;47.980;10.172;2022-09-03T13:39:48;3.40;;;2.00;;
7983;SDS011;4037;47.980;10.172;2022-09-03T13:44:49;3.63;;;2.63;;
7983;SDS011;4037;47.980;10.172;2022-09-03T13:49:45;4.40;;;2.80;;
7983;SDS011;4037;47.980;10.172;2022-09-03T13:57:48;3.20;;;2.33;;
7983;SDS011;4037;47.980;10.172;2022-09-03T14:00:26;2.50;;;2.30;;
7983;SDS011;4037;47.980;10.172;2022-09-03T14:03:02;2.17;;;1.97;;
7983;SDS011;4037;47.980;10.172;2022-09-03T14:08:33;2.33;;;1.77;;
7983;SDS011;4037;47.980;10.172;2022-09-03T14:19:00;1.73;;;1.63;;
7983;SDS011;4037;47.980;10.172;2022-09-03T14:21:28;3.57;;;1.50;;
7983;SDS011;4037;47.980;10.172;2022-09-03T14:26:31;2.10;;;1.60;;
7983;SDS011;4037;47.980;10.172;2022-09-03T14:29:01;2.03;;;1.43;;
7983;SDS011;4037;47.980;10.172;2022-09-03T14:31:50;2.00;;;1.40;;
7983;SDS011;4037;47.980;10.172;2022-09-03T14:34:25;1.93;;;1.40;;
7983;SDS011;4037;47.980;10.172;2022-09-03T14:39:47;2.03;;;1.83;;
7983;SDS011;4037;47.980;10.172;2022-09-03T14:48:19;2.57;;;1.70;;
7983;SDS011;4037;47.980;10.172;2022-09-03T14:53:01;2.03;;;1.47;;
7983;SDS011;4037;47.980;10.172;2022-09-03T15:11:32;1.40;;;1.30;;
7983;SDS011;4037;47.980;10.172;2022-09-03T15:14:13;1.20;;;1.10;;
7983;SDS011;4037;47.980;10.172;2022-09-03T15:29:28;1.73;;;1.50;;
7983;SDS011;4037;47.980;10.172;2022-09-03T15:32:01;1.50;;;1.27;;
7983;SDS011;4037;47.980;10.172;2022-09-03T15:34:34;1.33;;;1.10;;
7983;SDS011;4037;47.980;10.172;2022-09-03T15:37:22;1.90;;;1.60;;
7983;SDS011;4037;47.980;10.172;2022-09-03T15:40:01;1.43;;;1.23;;
7983;SDS011;4037;47.980;10.172;2022-09-03T15:42:28;1.67;;;1.57;;
7983;SDS011;4037;47.980;10.172;2022-09-03T15:44:55;1.87;;;1.67;;
7983;SDS011;4037;47.980;10.172;2022-09-03T15:50:47;1.60;;;1.47;;
7983;SDS011;4037;47.980;10.172;2022-09-03T15:53:13;1.40;;;1.20;;
7983;SDS011;4037;47.980;10.172;2022-09-03T15:55:41;2.03;;;1.43;;
7983;SDS011;4037;47.980;10.172;2022-09-03T15:58:27;2.53;;;1.40;;
7983;SDS011;4037;47.980;10.172;2022-09-03T16:04:00;1.57;;;1.47;;
7983;SDS011;4037;47.980;10.172;2022-09-03T16:09:26;1.20;;;1.10;;
7983;SDS011;4037;47.980;10.172;2022-09-03T16:12:10;1.17;;;1.08;;
7983;SDS011;4037;47.980;10.172;2022-09-03T16:14:40;1.67;;;1.20;;
7983;SDS011;4037;47.980;10.172;2022-09-03T16:17:18;1.25;;;1.13;;
7983;SDS011;4037;47.980;10.172;2022-09-03T16:22:25;1.55;;;1.38;;
7983;SDS011;4037;47.980;10.172;2022-09-03T16:24:58;1.30;;;1.20;;
7983;SDS011;4037;47.980;10.172;2022-09-03T16:27:26;1.40;;;1.30;;
7983;SDS011;4037;47.980;10.172;2022-09-03T16:30:06;1.40;;;1.20;;
7983;SDS011;4037;47.980;10.172;2022-09-03T16:43:17;2.80;;;1.20;;
7983;SDS011;4037;47.980;10.172;2022-09-03T16:48:24;1.50;;;1.40;;
7983;SDS011;4037;47.980;10.172;2022-09-03T16:51:04;1.80;;;1.60;;
7983;SDS011;4037;47.980;10.172;2022-09-03T16:59:12;1.67;;;1.30;;
7983;SDS011;4037;47.980;10.172;2022-09-03T17:01:52;3.70;;;1.50;;
7983;SDS011;4037;47.980;10.172;2022-09-03T17:25:03;1.90;;;1.53;;
7983;SDS011;4037;47.980;10.172;2022-09-03T17:27:54;2.07;;;1.43;;
7983;SDS011;4037;47.980;10.172;2022-09-03T17:30:40;3.20;;;1.80;;
7983;SDS011;4037;47.980;10.172;2022-09-03T17:33:10;1.97;;;1.43;;
7983;SDS011;4037;47.980;10.172;2022-09-03T17:41:25;1.97;;;1.80;;
7983;SDS011;4037;47.980;10.172;2022-09-03T17:44:03;2.90;;;1.70;;
7983;SDS011;4037;47.980;10.172;2022-09-03T17:46:38;4.37;;;1.80;;
7983;SDS011;4037;47.980;10.172;2022-09-03T17:49:10;2.97;;;1.50;;
7983;SDS011;4037;47.980;10.172;2022-09-03T17:51:49;3.00;;;1.70;;
7983;SDS011;4037;47.980;10.172;2022-09-03T17:54:23;1.63;;;1.43;;
7983;SDS011;4037;47.980;10.172;2022-09-03T17:59:44;2.13;;;1.93;;
7983;SDS011;4037;47.980;10.172;2022-09-03T18:07:48;3.03;;;2.00;;
7983;SDS011;4037;47.980;10.172;2022-09-03T18:10:18;2.70;;;1.90;;
7983;SDS011;4037;47.980;10.172;2022-09-03T18:12:58;2.00;;;1.80;;
7983;SDS011;4037;47.980;10.172;2022-09-03T18:15:34;1.97;;;1.70;;
7983;SDS011;4037;47.980;10.172;2022-09-03T18:18:03;1.80;;;1.70;;
7983;SDS011;4037;47.980;10.172;2022-09-03T18:20:31;1.60;;;1.50;;
7983;SDS011;4037;47.980;10.172;2022-09-03T18:23:44;2.43;;;1.50;;
7983;SDS011;4037;47.980;10.172;2022-09-03T18:26:32;2.87;;;2.20;;
7983;SDS011;4037;47.980;10.172;2022-09-03T18:29:24;2.37;;;2.00;;
7983;SDS011;4037;47.980;10.172;2022-09-03T18:32:12;1.77;;;1.67;;
7983;SDS011;4037;47.980;10.172;2022-09-03T18:34:56;3.67;;;2.00;;
7983;SDS011;4037;47.980;10.172;2022-09-03T18:37:41;2.03;;;1.83;;
7983;SDS011;4037;47.980;10.172;2022-09-03T18:49:22;2.50;;;2.30;;
7983;SDS011;4037;47.980;10.172;2022-09-03T18:55:00;3.27;;;2.60;;
7983;SDS011;4037;47.980;10.172;2022-09-03T19:00:56;1.77;;;1.67;;
7983;SDS011;4037;47.980;10.172;2022-09-03T19:04:02;3.07;;;2.30;;
7983;SDS011;4037;47.980;10.172;2022-09-03T19:15:43;2.50;;;2.20;;
7983;SDS011;4037;47.980;10.172;2022-09-03T19:18:48;3.57;;;2.50;;
7983;SDS011;4037;47.980;10.172;2022-09-03T19:21:38;4.87;;;2.50;;
7983;SDS011;4037;47.980;10.172;2022-09-03T19:24:28;2.77;;;2.57;;
7983;SDS011;4037;47.980;10.172;2022-09-03T19:30:05;3.20;;;2.30;;
7983;SDS011;4037;47.980;10.172;2022-09-03T19:36:02;2.67;;;2.47;;
7983;SDS011;4037;47.980;10.172;2022-09-03T19:44:41;3.53;;;2.60;;
7983;SDS011;4037;47.980;10.172;2022-09-03T19:47:35;3.03;;;2.73;;
7983;SDS011;4037;47.980;10.172;2022-09-03T19:50:26;3.70;;;3.03;;
7983;SDS011;4037;47.980;10.172;2022-09-03T19:53:14;3.23;;;2.90;;
7983;SDS011;4037;47.980;10.172;2022-09-03T19:56:02;3.73;;;3.20;;
7983;SDS011;4037;47.980;10.172;2022-09-03T19:58:50;3.57;;;3.00;;
7983;SDS011;4037;47.980;10.172;2022-09-03T20:01:37;3.77;;;3.37;;
7983;SDS011;4037;47.980;10.172;2022-09-03T20:04:26;2.80;;;2.60;;
7983;SDS011;4037;47.980;10.172;2022-09-03T20:07:13;4.67;;;3.10;;
7983;SDS011;4037;47.980;10.172;2022-09-03T20:09:58;3.03;;;2.70;;
7983;SDS011;4037;47.980;10.172;2022-09-03T20:12:47;5.03;;;2.53;;
7983;SDS011;4037;47.980;10.172;2022-09-03T20:15:14;5.77;;;2.97;;
7983;SDS011;4037;47.980;10.172;2022-09-03T20:17:53;4.00;;;3.30;;
7983;SDS011;4037;47.980;10.172;2022-09-03T20:20:26;4.47;;;2.97;;
7983;SDS011;4037;47.980;10.172;2022-09-03T20:23:03;3.33;;;3.03;;
7983;SDS011;4037;47.980;10.172;2022-09-03T20:26:19;4.50;;;2.83;;
7983;SDS011;4037;47.980;10.172;2022-09-03T20:39:19;3.47;;;3.17;;
7983;SDS011;4037;47.980;10.172;2022-09-03T20:41:48;3.67;;;2.67;;
7983;SDS011;4037;47.980;10.172;2022-09-03T20:44:41;3.80;;;3.20;;